sensor_id;sensor_type;location;lat;lon;timestamp;P1;durP1;ratioP1;P2;durP2;ratioP2
67442;SDS011;54311;51.726;5.154;2022-09-28T00:01:22;11.82;;;10.77;;
67442;SDS011;54311;51.726;5.154;2022-09-28T00:03:48;12.38;;;10.13;;
67442;SDS011;54311;51.726;5.154;2022-09-28T00:06:15;10.65;;;9.75;;
67442;SDS011;54311;51.726;5.154;2022-09-28T00:08:40;12.15;;;10.95;;
67442;SDS011;54311;51.726;5.154;2022-09-28T00:11:06;11.80;;;10.63;;
67442;SDS011;54311;51.726;5.154;2022-09-28T00:13:32;10.60;;;9.70;;
67442;SDS011;54311;51.726;5.154;2022-09-28T00:16:01;11.35;;;10.27;;
67442;SDS011;54311;51.726;5.154;2022-09-28T00:18:26;10.95;;;10.00;;
67442;SDS011;54311;51.726;5.154;2022-09-28T00:20:59;10.27;;;9.57;;
67442;SDS011;54311;51.726;5.154;2022-09-28T00:23:24;10.65;;;9.65;;
67442;SDS011;54311;51.726;5.154;2022-09-28T00:25:49;10.57;;;9.53;;
67442;SDS011;54311;51.726;5.154;2022-09-28T00:28:14;11.50;;;9.53;;
67442;SDS011;54311;51.726;5.154;2022-09-28T00:30:40;10.63;;;9.60;;
67442;SDS011;54311;51.726;5.154;2022-09-28T00:33:05;10.57;;;9.67;;
67442;SDS011;54311;51.726;5.154;2022-09-28T00:35:30;11.70;;;9.73;;
67442;SDS011;54311;51.726;5.154;2022-09-28T00:37:55;10.43;;;9.37;;
67442;SDS011;54311;51.726;5.154;2022-09-28T00:40:20;10.37;;;9.37;;
67442;SDS011;54311;51.726;5.154;2022-09-28T00:42:46;10.05;;;9.35;;
67442;SDS011;54311;51.726;5.154;2022-09-28T00:45:12;9.53;;;8.87;;
67442;SDS011;54311;51.726;5.154;2022-09-28T00:50:07;9.70;;;8.90;;
67442;SDS011;54311;51.726;5.154;2022-09-28T00:52:35;9.38;;;8.57;;
67442;SDS011;54311;51.726;5.154;2022-09-28T00:55:04;10.68;;;9.68;;
67442;SDS011;54311;51.726;5.154;2022-09-28T00:57:29;10.70;;;9.48;;
67442;SDS011;54311;51.726;5.154;2022-09-28T00:59:56;9.50;;;8.73;;
67442;SDS011;54311;51.726;5.154;2022-09-28T01:02:23;9.93;;;9.10;;
67442;SDS011;54311;51.726;5.154;2022-09-28T01:04:49;9.93;;;9.13;;
67442;SDS011;54311;51.726;5.154;2022-09-28T01:07:16;10.65;;;9.60;;
67442;SDS011;54311;51.726;5.154;2022-09-28T01:09:42;10.27;;;9.13;;
67442;SDS011;54311;51.726;5.154;2022-09-28T01:12:09;9.43;;;8.57;;
67442;SDS011;54311;51.726;5.154;2022-09-28T01:14:34;11.90;;;9.00;;
67442;SDS011;54311;51.726;5.154;2022-09-28T01:17:13;12.05;;;8.70;;
67442;SDS011;54311;51.726;5.154;2022-09-28T01:22:12;9.17;;;8.37;;
67442;SDS011;54311;51.726;5.154;2022-09-28T01:24:49;9.25;;;8.43;;
67442;SDS011;54311;51.726;5.154;2022-09-28T01:27:27;9.00;;;8.15;;
67442;SDS011;54311;51.726;5.154;2022-09-28T01:29:55;10.18;;;9.25;;
67442;SDS011;54311;51.726;5.154;2022-09-28T01:35:15;9.77;;;8.80;;
67442;SDS011;54311;51.726;5.154;2022-09-28T01:40:07;12.40;;;9.20;;
67442;SDS011;54311;51.726;5.154;2022-09-28T01:42:33;11.18;;;8.27;;
67442;SDS011;54311;51.726;5.154;2022-09-28T01:45:03;9.82;;;9.02;;
67442;SDS011;54311;51.726;5.154;2022-09-28T01:47:30;9.82;;;8.75;;
67442;SDS011;54311;51.726;5.154;2022-09-28T01:49:58;8.75;;;7.95;;
67442;SDS011;54311;51.726;5.154;2022-09-28T01:52:28;12.60;;;7.45;;
67442;SDS011;54311;51.726;5.154;2022-09-28T01:57:28;8.80;;;7.50;;
67442;SDS011;54311;51.726;5.154;2022-09-28T02:02:30;9.18;;;7.63;;
67442;SDS011;54311;51.726;5.154;2022-09-28T02:04:57;10.20;;;7.53;;
67442;SDS011;54311;51.726;5.154;2022-09-28T02:08:06;7.47;;;6.88;;
67442;SDS011;54311;51.726;5.154;2022-09-28T02:10:14;7.70;;;7.07;;
67442;SDS011;54311;51.726;5.154;2022-09-28T02:12:43;8.02;;;7.15;;
67442;SDS011;54311;51.726;5.154;2022-09-28T02:15:10;8.20;;;7.40;;
67442;SDS011;54311;51.726;5.154;2022-09-28T02:17:38;7.85;;;7.13;;
67442;SDS011;54311;51.726;5.154;2022-09-28T02:20:03;8.05;;;7.30;;
67442;SDS011;54311;51.726;5.154;2022-09-28T02:22:38;7.88;;;7.38;;
67442;SDS011;54311;51.726;5.154;2022-09-28T02:27:33;8.25;;;7.55;;
67442;SDS011;54311;51.726;5.154;2022-09-28T02:30:00;7.45;;;6.68;;
67442;SDS011;54311;51.726;5.154;2022-09-28T02:32:26;6.90;;;6.38;;
67442;SDS011;54311;51.726;5.154;2022-09-28T02:34:53;7.60;;;6.35;;
67442;SDS011;54311;51.726;5.154;2022-09-28T02:37:19;9.63;;;6.50;;
67442;SDS011;54311;51.726;5.154;2022-09-28T02:39:44;5.85;;;5.35;;
67442;SDS011;54311;51.726;5.154;2022-09-28T02:42:11;5.20;;;4.97;;
67442;SDS011;54311;51.726;5.154;2022-09-28T02:44:50;5.47;;;5.03;;
67442;SDS011;54311;51.726;5.154;2022-09-28T02:50:06;4.88;;;4.50;;
67442;SDS011;54311;51.726;5.154;2022-09-28T03:07:23;2.70;;;2.60;;
67442;SDS011;54311;51.726;5.154;2022-09-28T03:09:53;3.10;;;2.90;;
67442;SDS011;54311;51.726;5.154;2022-09-28T03:12:20;2.70;;;2.50;;
67442;SDS011;54311;51.726;5.154;2022-09-28T03:14:47;2.58;;;2.53;;
67442;SDS011;54311;51.726;5.154;2022-09-28T03:17:15;2.55;;;2.45;;
67442;SDS011;54311;51.726;5.154;2022-09-28T03:19:44;3.13;;;2.50;;
67442;SDS011;54311;51.726;5.154;2022-09-28T03:22:09;3.20;;;2.50;;
67442;SDS011;54311;51.726;5.154;2022-09-28T03:24:34;2.57;;;2.43;;
67442;SDS011;54311;51.726;5.154;2022-09-28T03:27:00;2.40;;;2.30;;
67442;SDS011;54311;51.726;5.154;2022-09-28T03:29:25;2.37;;;2.27;;
67442;SDS011;54311;51.726;5.154;2022-09-28T03:31:50;3.20;;;2.40;;
67442;SDS011;54311;51.726;5.154;2022-09-28T03:34:15;4.25;;;2.90;;
67442;SDS011;54311;51.726;5.154;2022-09-28T03:36:41;2.90;;;2.67;;
67442;SDS011;54311;51.726;5.154;2022-09-28T03:39:06;3.38;;;2.55;;
67442;SDS011;54311;51.726;5.154;2022-09-28T03:41:32;3.07;;;2.87;;
67442;SDS011;54311;51.726;5.154;2022-09-28T03:43:57;4.37;;;2.67;;
67442;SDS011;54311;51.726;5.154;2022-09-28T03:46:22;2.83;;;2.37;;
67442;SDS011;54311;51.726;5.154;2022-09-28T03:48:47;8.18;;;3.05;;
67442;SDS011;54311;51.726;5.154;2022-09-28T03:51:12;2.87;;;2.77;;
67442;SDS011;54311;51.726;5.154;2022-09-28T03:53:38;6.18;;;2.92;;
67442;SDS011;54311;51.726;5.154;2022-09-28T03:56:07;4.75;;;2.80;;
67442;SDS011;54311;51.726;5.154;2022-09-28T03:58:33;2.70;;;2.50;;
67442;SDS011;54311;51.726;5.154;2022-09-28T04:01:02;3.08;;;2.80;;
67442;SDS011;54311;51.726;5.154;2022-09-28T04:03:28;3.22;;;2.92;;
67442;SDS011;54311;51.726;5.154;2022-09-28T04:05:53;3.53;;;2.50;;
67442;SDS011;54311;51.726;5.154;2022-09-28T04:08:18;3.40;;;3.10;;
67442;SDS011;54311;51.726;5.154;2022-09-28T04:10:44;4.85;;;3.13;;
67442;SDS011;54311;51.726;5.154;2022-09-28T04:13:09;7.07;;;3.00;;
67442;SDS011;54311;51.726;5.154;2022-09-28T04:15:34;3.20;;;3.00;;
67442;SDS011;54311;51.726;5.154;2022-09-28T04:18:02;5.43;;;2.90;;
67442;SDS011;54311;51.726;5.154;2022-09-28T04:20:27;4.22;;;3.25;;
67442;SDS011;54311;51.726;5.154;2022-09-28T04:22:52;5.43;;;3.40;;
67442;SDS011;54311;51.726;5.154;2022-09-28T04:25:17;5.63;;;3.27;;
67442;SDS011;54311;51.726;5.154;2022-09-28T04:27:42;3.37;;;3.17;;
67442;SDS011;54311;51.726;5.154;2022-09-28T04:30:26;3.15;;;3.00;;
67442;SDS011;54311;51.726;5.154;2022-09-28T04:32:51;3.85;;;3.53;;
67442;SDS011;54311;51.726;5.154;2022-09-28T04:35:16;6.47;;;3.47;;
67442;SDS011;54311;51.726;5.154;2022-09-28T04:37:42;5.63;;;3.27;;
67442;SDS011;54311;51.726;5.154;2022-09-28T04:40:07;5.15;;;2.30;;
67442;SDS011;54311;51.726;5.154;2022-09-28T04:42:32;3.67;;;3.20;;
67442;SDS011;54311;51.726;5.154;2022-09-28T04:44:58;3.25;;;2.92;;
67442;SDS011;54311;51.726;5.154;2022-09-28T04:47:25;5.05;;;3.45;;
67442;SDS011;54311;51.726;5.154;2022-09-28T04:49:50;3.58;;;3.17;;
67442;SDS011;54311;51.726;5.154;2022-09-28T04:52:15;3.50;;;3.10;;
67442;SDS011;54311;51.726;5.154;2022-09-28T04:54:40;4.20;;;3.33;;
67442;SDS011;54311;51.726;5.154;2022-09-28T04:57:06;2.60;;;2.50;;
67442;SDS011;54311;51.726;5.154;2022-09-28T04:59:31;3.35;;;3.13;;
67442;SDS011;54311;51.726;5.154;2022-09-28T05:01:57;4.20;;;2.90;;
67442;SDS011;54311;51.726;5.154;2022-09-28T05:04:22;3.43;;;3.10;;
67442;SDS011;54311;51.726;5.154;2022-09-28T05:06:47;4.70;;;3.30;;
67442;SDS011;54311;51.726;5.154;2022-09-28T05:09:13;10.90;;;3.25;;
67442;SDS011;54311;51.726;5.154;2022-09-28T05:11:38;6.07;;;3.40;;
67442;SDS011;54311;51.726;5.154;2022-09-28T05:14:03;3.40;;;3.27;;
67442;SDS011;54311;51.726;5.154;2022-09-28T05:16:29;3.50;;;3.30;;
67442;SDS011;54311;51.726;5.154;2022-09-28T05:18:57;3.50;;;3.22;;
67442;SDS011;54311;51.726;5.154;2022-09-28T05:21:22;3.60;;;3.43;;
67442;SDS011;54311;51.726;5.154;2022-09-28T05:23:50;4.40;;;3.90;;
67442;SDS011;54311;51.726;5.154;2022-09-28T05:26:15;4.03;;;3.67;;
67442;SDS011;54311;51.726;5.154;2022-09-28T05:28:41;4.22;;;3.92;;
67442;SDS011;54311;51.726;5.154;2022-09-28T05:31:06;6.07;;;3.78;;
67442;SDS011;54311;51.726;5.154;2022-09-28T05:33:31;4.77;;;3.50;;
67442;SDS011;54311;51.726;5.154;2022-09-28T05:35:57;3.65;;;3.35;;
67442;SDS011;54311;51.726;5.154;2022-09-28T05:38:22;4.75;;;3.58;;
67442;SDS011;54311;51.726;5.154;2022-09-28T05:40:47;3.90;;;3.65;;
67442;SDS011;54311;51.726;5.154;2022-09-28T05:43:13;6.23;;;3.60;;
67442;SDS011;54311;51.726;5.154;2022-09-28T05:45:38;3.03;;;2.83;;
67442;SDS011;54311;51.726;5.154;2022-09-28T05:48:03;4.87;;;3.47;;
67442;SDS011;54311;51.726;5.154;2022-09-28T05:50:28;8.73;;;3.35;;
67442;SDS011;54311;51.726;5.154;2022-09-28T05:53:00;5.18;;;3.28;;
67442;SDS011;54311;51.726;5.154;2022-09-28T05:55:25;5.53;;;3.60;;
67442;SDS011;54311;51.726;5.154;2022-09-28T05:57:51;3.53;;;3.33;;
67442;SDS011;54311;51.726;5.154;2022-09-28T06:00:16;4.77;;;4.10;;
67442;SDS011;54311;51.726;5.154;2022-09-28T06:02:42;4.75;;;4.15;;
67442;SDS011;54311;51.726;5.154;2022-09-28T06:05:07;5.47;;;4.37;;
67442;SDS011;54311;51.726;5.154;2022-09-28T06:07:32;7.18;;;4.78;;
67442;SDS011;54311;51.726;5.154;2022-09-28T06:09:58;4.10;;;3.80;;
67442;SDS011;54311;51.726;5.154;2022-09-28T06:12:23;8.90;;;4.30;;
67442;SDS011;54311;51.726;5.154;2022-09-28T06:14:49;4.63;;;3.90;;
67442;SDS011;54311;51.726;5.154;2022-09-28T06:17:14;4.22;;;3.92;;
67442;SDS011;54311;51.726;5.154;2022-09-28T06:19:40;3.88;;;3.58;;
67442;SDS011;54311;51.726;5.154;2022-09-28T06:22:05;5.57;;;3.77;;
67442;SDS011;54311;51.726;5.154;2022-09-28T06:24:30;4.13;;;3.67;;
67442;SDS011;54311;51.726;5.154;2022-09-28T06:26:56;5.93;;;3.92;;
67442;SDS011;54311;51.726;5.154;2022-09-28T06:29:21;4.23;;;3.87;;
67442;SDS011;54311;51.726;5.154;2022-09-28T06:31:46;4.00;;;3.60;;
67442;SDS011;54311;51.726;5.154;2022-09-28T06:34:11;4.07;;;3.50;;
67442;SDS011;54311;51.726;5.154;2022-09-28T06:36:37;4.50;;;4.20;;
67442;SDS011;54311;51.726;5.154;2022-09-28T06:39:02;5.55;;;4.03;;
67442;SDS011;54311;51.726;5.154;2022-09-28T06:41:27;5.60;;;4.13;;
67442;SDS011;54311;51.726;5.154;2022-09-28T06:43:53;8.85;;;3.83;;
67442;SDS011;54311;51.726;5.154;2022-09-28T06:46:18;7.10;;;3.50;;
67442;SDS011;54311;51.726;5.154;2022-09-28T06:48:44;4.90;;;3.50;;
67442;SDS011;54311;51.726;5.154;2022-09-28T06:51:10;6.35;;;3.58;;
67442;SDS011;54311;51.726;5.154;2022-09-28T06:53:35;3.73;;;3.53;;
67442;SDS011;54311;51.726;5.154;2022-09-28T06:56:00;4.22;;;3.80;;
67442;SDS011;54311;51.726;5.154;2022-09-28T06:58:26;4.03;;;3.63;;
67442;SDS011;54311;51.726;5.154;2022-09-28T07:00:52;5.88;;;4.00;;
67442;SDS011;54311;51.726;5.154;2022-09-28T07:03:23;6.50;;;4.13;;
67442;SDS011;54311;51.726;5.154;2022-09-28T07:05:49;4.20;;;3.70;;
67442;SDS011;54311;51.726;5.154;2022-09-28T07:08:15;4.72;;;4.35;;
67442;SDS011;54311;51.726;5.154;2022-09-28T07:10:41;5.90;;;4.35;;
67442;SDS011;54311;51.726;5.154;2022-09-28T07:13:07;5.43;;;3.97;;
67442;SDS011;54311;51.726;5.154;2022-09-28T07:15:33;5.38;;;4.15;;
67442;SDS011;54311;51.726;5.154;2022-09-28T07:18:02;4.63;;;3.80;;
67442;SDS011;54311;51.726;5.154;2022-09-28T07:20:28;8.20;;;4.53;;
67442;SDS011;54311;51.726;5.154;2022-09-28T07:22:53;4.50;;;3.70;;
67442;SDS011;54311;51.726;5.154;2022-09-28T07:25:19;4.05;;;3.75;;
67442;SDS011;54311;51.726;5.154;2022-09-28T07:27:44;5.93;;;3.60;;
67442;SDS011;54311;51.726;5.154;2022-09-28T07:30:11;7.50;;;3.97;;
67442;SDS011;54311;51.726;5.154;2022-09-28T07:32:36;8.65;;;4.20;;
67442;SDS011;54311;51.726;5.154;2022-09-28T07:35:02;4.55;;;4.15;;
67442;SDS011;54311;51.726;5.154;2022-09-28T07:37:31;6.35;;;4.28;;
67442;SDS011;54311;51.726;5.154;2022-09-28T07:39:57;3.43;;;3.23;;
67442;SDS011;54311;51.726;5.154;2022-09-28T07:42:41;5.75;;;4.20;;
67442;SDS011;54311;51.726;5.154;2022-09-28T07:45:06;3.80;;;3.55;;
67442;SDS011;54311;51.726;5.154;2022-09-28T07:47:31;8.60;;;3.80;;
67442;SDS011;54311;51.726;5.154;2022-09-28T07:49:57;3.63;;;3.13;;
67442;SDS011;54311;51.726;5.154;2022-09-28T07:52:22;4.43;;;3.40;;
67442;SDS011;54311;51.726;5.154;2022-09-28T07:54:52;9.68;;;4.00;;
67442;SDS011;54311;51.726;5.154;2022-09-28T07:57:18;5.43;;;3.17;;
67442;SDS011;54311;51.726;5.154;2022-09-28T07:59:44;5.97;;;3.20;;
67442;SDS011;54311;51.726;5.154;2022-09-28T08:02:10;3.17;;;2.97;;
67442;SDS011;54311;51.726;5.154;2022-09-28T08:04:36;4.65;;;3.60;;
67442;SDS011;54311;51.726;5.154;2022-09-28T08:07:01;4.85;;;3.25;;
67442;SDS011;54311;51.726;5.154;2022-09-28T08:09:27;5.80;;;3.30;;
67442;SDS011;54311;51.726;5.154;2022-09-28T08:11:52;5.40;;;3.20;;
67442;SDS011;54311;51.726;5.154;2022-09-28T08:14:18;3.70;;;3.13;;
67442;SDS011;54311;51.726;5.154;2022-09-28T08:16:44;9.70;;;3.47;;
67442;SDS011;54311;51.726;5.154;2022-09-28T08:19:09;6.70;;;3.10;;
67442;SDS011;54311;51.726;5.154;2022-09-28T08:21:34;6.60;;;3.17;;
67442;SDS011;54311;51.726;5.154;2022-09-28T08:24:08;3.15;;;2.90;;
67442;SDS011;54311;51.726;5.154;2022-09-28T08:26:34;3.33;;;2.70;;
67442;SDS011;54311;51.726;5.154;2022-09-28T08:29:00;3.05;;;2.85;;
67442;SDS011;54311;51.726;5.154;2022-09-28T08:31:25;2.93;;;2.73;;
67442;SDS011;54311;51.726;5.154;2022-09-28T08:33:50;3.60;;;2.50;;
67442;SDS011;54311;51.726;5.154;2022-09-28T08:36:17;4.35;;;3.00;;
67442;SDS011;54311;51.726;5.154;2022-09-28T08:38:42;12.33;;;3.10;;
67442;SDS011;54311;51.726;5.154;2022-09-28T08:46:18;5.23;;;3.13;;
67442;SDS011;54311;51.726;5.154;2022-09-28T08:48:50;3.20;;;3.00;;
67442;SDS011;54311;51.726;5.154;2022-09-28T08:51:19;6.50;;;2.83;;
67442;SDS011;54311;51.726;5.154;2022-09-28T08:56:19;2.95;;;2.75;;
67442;SDS011;54311;51.726;5.154;2022-09-28T08:58:45;2.85;;;2.70;;
67442;SDS011;54311;51.726;5.154;2022-09-28T09:01:12;2.83;;;2.70;;
67442;SDS011;54311;51.726;5.154;2022-09-28T09:03:40;3.85;;;2.85;;
67442;SDS011;54311;51.726;5.154;2022-09-28T09:08:37;3.40;;;2.97;;
67442;SDS011;54311;51.726;5.154;2022-09-28T09:23:50;3.37;;;3.10;;
67442;SDS011;54311;51.726;5.154;2022-09-28T09:26:18;2.70;;;2.60;;
67442;SDS011;54311;51.726;5.154;2022-09-28T09:37:15;3.97;;;3.63;;
67442;SDS011;54311;51.726;5.154;2022-09-28T09:42:30;3.22;;;2.92;;
67442;SDS011;54311;51.726;5.154;2022-09-28T09:47:44;5.95;;;2.88;;
67442;SDS011;54311;51.726;5.154;2022-09-28T09:50:12;2.50;;;2.10;;
67442;SDS011;54311;51.726;5.154;2022-09-28T09:52:53;3.45;;;2.22;;
67442;SDS011;54311;51.726;5.154;2022-09-28T09:55:32;2.53;;;2.33;;
67442;SDS011;54311;51.726;5.154;2022-09-28T09:58:34;2.45;;;2.35;;
67442;SDS011;54311;51.726;5.154;2022-09-28T10:00:51;4.05;;;2.75;;
67442;SDS011;54311;51.726;5.154;2022-09-28T10:03:21;2.80;;;2.63;;
67442;SDS011;54311;51.726;5.154;2022-09-28T10:05:50;3.55;;;2.50;;
67442;SDS011;54311;51.726;5.154;2022-09-28T10:08:17;2.40;;;2.20;;
67442;SDS011;54311;51.726;5.154;2022-09-28T10:10:48;4.18;;;2.10;;
67442;SDS011;54311;51.726;5.154;2022-09-28T10:13:14;2.75;;;2.55;;
67442;SDS011;54311;51.726;5.154;2022-09-28T10:15:42;3.70;;;2.30;;
67442;SDS011;54311;51.726;5.154;2022-09-28T10:18:10;6.43;;;2.30;;
67442;SDS011;54311;51.726;5.154;2022-09-28T10:20:37;3.33;;;2.40;;
67442;SDS011;54311;51.726;5.154;2022-09-28T10:23:03;3.17;;;2.20;;
67442;SDS011;54311;51.726;5.154;2022-09-28T10:25:30;4.00;;;2.20;;
67442;SDS011;54311;51.726;5.154;2022-09-28T10:27:57;3.25;;;2.30;;
67442;SDS011;54311;51.726;5.154;2022-09-28T10:30:25;7.80;;;2.10;;
67442;SDS011;54311;51.726;5.154;2022-09-28T10:32:51;4.30;;;2.07;;
67442;SDS011;54311;51.726;5.154;2022-09-28T10:40:44;8.18;;;2.72;;
67442;SDS011;54311;51.726;5.154;2022-09-28T10:45:41;11.05;;;3.00;;
67442;SDS011;54311;51.726;5.154;2022-09-28T10:48:12;2.50;;;2.40;;
67442;SDS011;54311;51.726;5.154;2022-09-28T10:50:39;5.05;;;3.03;;
67442;SDS011;54311;51.726;5.154;2022-09-28T10:53:17;8.25;;;3.22;;
67442;SDS011;54311;51.726;5.154;2022-09-28T10:55:59;2.80;;;2.60;;
67442;SDS011;54311;51.726;5.154;2022-09-28T10:58:26;3.88;;;2.78;;
67442;SDS011;54311;51.726;5.154;2022-09-28T11:00:56;2.75;;;2.47;;
67442;SDS011;54311;51.726;5.154;2022-09-28T11:03:24;4.90;;;2.50;;
67442;SDS011;54311;51.726;5.154;2022-09-28T11:08:25;3.05;;;2.50;;
67442;SDS011;54311;51.726;5.154;2022-09-28T11:11:03;6.10;;;2.50;;
67442;SDS011;54311;51.726;5.154;2022-09-28T11:13:29;3.03;;;2.60;;
67442;SDS011;54311;51.726;5.154;2022-09-28T11:15:55;5.80;;;2.70;;
67442;SDS011;54311;51.726;5.154;2022-09-28T11:18:27;2.58;;;2.10;;
67442;SDS011;54311;51.726;5.154;2022-09-28T11:21:14;2.58;;;1.90;;
67442;SDS011;54311;51.726;5.154;2022-09-28T11:23:39;2.72;;;2.40;;
67442;SDS011;54311;51.726;5.154;2022-09-28T11:26:06;6.18;;;2.08;;
67442;SDS011;54311;51.726;5.154;2022-09-28T11:28:33;3.92;;;2.08;;
67442;SDS011;54311;51.726;5.154;2022-09-28T11:31:00;2.25;;;2.10;;
67442;SDS011;54311;51.726;5.154;2022-09-28T11:33:28;2.25;;;2.08;;
67442;SDS011;54311;51.726;5.154;2022-09-28T11:48:46;2.17;;;1.70;;
67442;SDS011;54311;51.726;5.154;2022-09-28T11:53:39;2.05;;;1.70;;
67442;SDS011;54311;51.726;5.154;2022-09-28T11:56:27;1.98;;;1.88;;
67442;SDS011;54311;51.726;5.154;2022-09-28T11:58:56;1.95;;;1.83;;
67442;SDS011;54311;51.726;5.154;2022-09-28T12:01:34;1.77;;;1.67;;
67442;SDS011;54311;51.726;5.154;2022-09-28T12:04:06;2.05;;;1.70;;
67442;SDS011;54311;51.726;5.154;2022-09-28T12:06:38;3.35;;;2.40;;
67442;SDS011;54311;51.726;5.154;2022-09-28T12:09:21;2.95;;;2.17;;
67442;SDS011;54311;51.726;5.154;2022-09-28T12:11:49;1.80;;;1.70;;
67442;SDS011;54311;51.726;5.154;2022-09-28T12:14:21;4.60;;;2.08;;
67442;SDS011;54311;51.726;5.154;2022-09-28T12:17:02;1.90;;;1.80;;
67442;SDS011;54311;51.726;5.154;2022-09-28T12:19:33;3.97;;;2.00;;
67442;SDS011;54311;51.726;5.154;2022-09-28T12:22:08;3.78;;;1.90;;
67442;SDS011;54311;51.726;5.154;2022-09-28T12:27:04;2.00;;;1.90;;
67442;SDS011;54311;51.726;5.154;2022-09-28T12:29:32;3.25;;;1.80;;
67442;SDS011;54311;51.726;5.154;2022-09-28T12:34:27;1.80;;;1.70;;
67442;SDS011;54311;51.726;5.154;2022-09-28T12:37:03;3.45;;;1.60;;
67442;SDS011;54311;51.726;5.154;2022-09-28T12:39:41;2.08;;;1.90;;
67442;SDS011;54311;51.726;5.154;2022-09-28T12:47:08;1.57;;;1.47;;
67442;SDS011;54311;51.726;5.154;2022-09-28T12:49:44;4.28;;;1.95;;
67442;SDS011;54311;51.726;5.154;2022-09-28T13:02:40;4.00;;;1.88;;
67442;SDS011;54311;51.726;5.154;2022-09-28T13:05:27;2.42;;;1.73;;
67442;SDS011;54311;51.726;5.154;2022-09-28T13:10:40;5.30;;;1.90;;
67442;SDS011;54311;51.726;5.154;2022-09-28T13:15:58;1.98;;;1.88;;
67442;SDS011;54311;51.726;5.154;2022-09-28T13:19:10;1.92;;;1.80;;
67442;SDS011;54311;51.726;5.154;2022-09-28T13:21:17;1.80;;;1.70;;
67442;SDS011;54311;51.726;5.154;2022-09-28T13:23:45;2.95;;;1.33;;
67442;SDS011;54311;51.726;5.154;2022-09-28T13:26:15;4.18;;;1.98;;
67442;SDS011;54311;51.726;5.154;2022-09-28T13:28:44;4.82;;;2.10;;
67442;SDS011;54311;51.726;5.154;2022-09-28T13:31:12;1.80;;;1.40;;
67442;SDS011;54311;51.726;5.154;2022-09-28T13:33:42;1.60;;;1.50;;
67442;SDS011;54311;51.726;5.154;2022-09-28T13:38:52;1.77;;;1.50;;
67442;SDS011;54311;51.726;5.154;2022-09-28T13:41:21;1.60;;;1.45;;
67442;SDS011;54311;51.726;5.154;2022-09-28T13:46:19;2.90;;;1.17;;
67442;SDS011;54311;51.726;5.154;2022-09-28T13:48:51;1.60;;;1.50;;
67442;SDS011;54311;51.726;5.154;2022-09-28T13:51:40;3.55;;;1.60;;
67442;SDS011;54311;51.726;5.154;2022-09-28T13:56:36;2.60;;;1.80;;
67442;SDS011;54311;51.726;5.154;2022-09-28T13:59:08;1.70;;;1.60;;
67442;SDS011;54311;51.726;5.154;2022-09-28T14:01:38;1.90;;;1.73;;
67442;SDS011;54311;51.726;5.154;2022-09-28T14:04:17;2.97;;;1.60;;
67442;SDS011;54311;51.726;5.154;2022-09-28T14:06:53;3.30;;;1.90;;
67442;SDS011;54311;51.726;5.154;2022-09-28T14:09:24;3.00;;;2.03;;
67442;SDS011;54311;51.726;5.154;2022-09-28T14:11:54;3.35;;;2.17;;
67442;SDS011;54311;51.726;5.154;2022-09-28T14:14:24;3.05;;;1.80;;
67442;SDS011;54311;51.726;5.154;2022-09-28T14:16:50;1.70;;;1.60;;
67442;SDS011;54311;51.726;5.154;2022-09-28T14:19:22;3.35;;;1.67;;
67442;SDS011;54311;51.726;5.154;2022-09-28T14:21:57;3.45;;;1.98;;
67442;SDS011;54311;51.726;5.154;2022-09-28T14:24:30;1.75;;;1.63;;
67442;SDS011;54311;51.726;5.154;2022-09-28T14:27:10;4.05;;;1.65;;
67442;SDS011;54311;51.726;5.154;2022-09-28T14:29:38;1.50;;;1.45;;
67442;SDS011;54311;51.726;5.154;2022-09-28T14:32:04;1.60;;;1.50;;
67442;SDS011;54311;51.726;5.154;2022-09-28T14:34:45;1.63;;;1.52;;
67442;SDS011;54311;51.726;5.154;2022-09-28T14:37:18;4.80;;;1.67;;
67442;SDS011;54311;51.726;5.154;2022-09-28T14:40:24;3.45;;;1.50;;
67442;SDS011;54311;51.726;5.154;2022-09-28T14:43:17;8.43;;;2.17;;
67442;SDS011;54311;51.726;5.154;2022-09-28T14:45:44;1.55;;;1.45;;
67442;SDS011;54311;51.726;5.154;2022-09-28T14:48:11;1.80;;;1.70;;
67442;SDS011;54311;51.726;5.154;2022-09-28T14:50:37;1.52;;;1.42;;
67442;SDS011;54311;51.726;5.154;2022-09-28T14:53:04;2.42;;;1.90;;
67442;SDS011;54311;51.726;5.154;2022-09-28T14:55:31;2.03;;;1.70;;
67442;SDS011;54311;51.726;5.154;2022-09-28T14:57:58;4.07;;;1.55;;
67442;SDS011;54311;51.726;5.154;2022-09-28T15:00:25;1.80;;;1.70;;
67442;SDS011;54311;51.726;5.154;2022-09-28T15:02:51;1.92;;;1.70;;
67442;SDS011;54311;51.726;5.154;2022-09-28T15:05:28;3.03;;;1.60;;
67442;SDS011;54311;51.726;5.154;2022-09-28T15:07:54;1.40;;;1.40;;
67442;SDS011;54311;51.726;5.154;2022-09-28T15:10:24;1.50;;;1.40;;
67442;SDS011;54311;51.726;5.154;2022-09-28T15:12:52;5.35;;;1.60;;
67442;SDS011;54311;51.726;5.154;2022-09-28T15:15:29;1.60;;;1.60;;
67442;SDS011;54311;51.726;5.154;2022-09-28T15:18:39;1.58;;;1.50;;
67442;SDS011;54311;51.726;5.154;2022-09-28T15:20:47;1.67;;;1.50;;
67442;SDS011;54311;51.726;5.154;2022-09-28T15:23:23;1.90;;;1.40;;
67442;SDS011;54311;51.726;5.154;2022-09-28T15:25:52;3.53;;;1.55;;
67442;SDS011;54311;51.726;5.154;2022-09-28T15:28:20;2.38;;;1.60;;
67442;SDS011;54311;51.726;5.154;2022-09-28T15:30:48;5.45;;;2.17;;
67442;SDS011;54311;51.726;5.154;2022-09-28T15:33:24;1.77;;;1.60;;
67442;SDS011;54311;51.726;5.154;2022-09-28T15:36:08;1.70;;;1.60;;
67442;SDS011;54311;51.726;5.154;2022-09-28T15:38:37;1.40;;;1.40;;
67442;SDS011;54311;51.726;5.154;2022-09-28T15:41:04;1.77;;;1.67;;
67442;SDS011;54311;51.726;5.154;2022-09-28T15:43:31;1.85;;;1.75;;
67442;SDS011;54311;51.726;5.154;2022-09-28T15:46:06;1.52;;;1.52;;
67442;SDS011;54311;51.726;5.154;2022-09-28T15:48:40;4.15;;;1.45;;
67442;SDS011;54311;51.726;5.154;2022-09-28T15:51:10;1.80;;;1.70;;
67442;SDS011;54311;51.726;5.154;2022-09-28T15:53:57;1.83;;;1.60;;
67442;SDS011;54311;51.726;5.154;2022-09-28T15:56:22;3.13;;;1.52;;
67442;SDS011;54311;51.726;5.154;2022-09-28T15:59:24;1.58;;;1.50;;
67442;SDS011;54311;51.726;5.154;2022-09-28T16:01:39;1.52;;;1.50;;
67442;SDS011;54311;51.726;5.154;2022-09-28T16:07:23;1.60;;;1.50;;
67442;SDS011;54311;51.726;5.154;2022-09-28T16:12:18;1.60;;;1.60;;
67442;SDS011;54311;51.726;5.154;2022-09-28T16:14:46;1.08;;;1.05;;
67442;SDS011;54311;51.726;5.154;2022-09-28T16:17:16;1.20;;;1.20;;
67442;SDS011;54311;51.726;5.154;2022-09-28T16:19:42;1.33;;;1.33;;
67442;SDS011;54311;51.726;5.154;2022-09-28T16:22:10;1.23;;;1.23;;
67442;SDS011;54311;51.726;5.154;2022-09-28T16:24:38;1.30;;;1.30;;
67442;SDS011;54311;51.726;5.154;2022-09-28T16:29:35;1.47;;;1.47;;
67442;SDS011;54311;51.726;5.154;2022-09-28T16:37:29;1.33;;;1.33;;
67442;SDS011;54311;51.726;5.154;2022-09-28T16:39:58;1.48;;;1.48;;
67442;SDS011;54311;51.726;5.154;2022-09-28T16:42:23;1.40;;;1.40;;
67442;SDS011;54311;51.726;5.154;2022-09-28T16:44:49;2.53;;;1.42;;
67442;SDS011;54311;51.726;5.154;2022-09-28T16:47:14;1.60;;;1.50;;
67442;SDS011;54311;51.726;5.154;2022-09-28T16:49:40;1.50;;;1.50;;
67442;SDS011;54311;51.726;5.154;2022-09-28T16:52:08;1.83;;;1.73;;
67442;SDS011;54311;51.726;5.154;2022-09-28T16:54:35;1.45;;;1.45;;
67442;SDS011;54311;51.726;5.154;2022-09-28T16:57:19;1.30;;;1.30;;
67442;SDS011;54311;51.726;5.154;2022-09-28T16:59:44;2.57;;;1.87;;
67442;SDS011;54311;51.726;5.154;2022-09-28T17:02:19;4.73;;;2.07;;
67442;SDS011;54311;51.726;5.154;2022-09-28T17:04:49;12.02;;;1.90;;
67442;SDS011;54311;51.726;5.154;2022-09-28T17:07:16;7.28;;;2.53;;
67442;SDS011;54311;51.726;5.154;2022-09-28T17:09:44;2.90;;;2.70;;
67442;SDS011;54311;51.726;5.154;2022-09-28T17:12:11;2.70;;;2.60;;
67442;SDS011;54311;51.726;5.154;2022-09-28T17:14:39;3.45;;;3.15;;
67442;SDS011;54311;51.726;5.154;2022-09-28T17:17:04;3.97;;;3.73;;
67442;SDS011;54311;51.726;5.154;2022-09-28T17:19:29;4.30;;;3.53;;